Time;durP1;ratioP1;P1;durP2;ratioP2;P2;SDS_P1;SDS_P2;PMS_P1;PMS_P2;Temp;Humidity;BMP_temperature;BMP_pressure;BME280_temperature;BME280_humidity;BME280_pressure;Samples;Min_cycle;Max_cycle;Signal;HPM_P1;HPM_P2
2022/11/20 00:01:11;;;;;;;5.30;2.90;;;5.20;99.90;;;;;;5073981;28;20051;-84
2022/11/20 00:03:37;;;;;;;4.30;2.70;;;5.30;99.90;;;;;;5077184;28;20043;-84
2022/11/20 00:06:05;;;;;;;5.33;2.90;;;5.30;99.90;;;;;;5092769;28;20465;-84
2022/11/20 00:08:30;;;;;;;5.57;2.90;;;5.30;99.90;;;;;;5094008;28;20035;-84
2022/11/20 00:10:56;;;;;;;3.67;2.73;;;5.50;99.90;;;;;;5093532;28;20361;-84
2022/11/20 00:13:22;;;;;;;3.70;2.80;;;5.40;99.90;;;;;;5093797;28;20035;-84
2022/11/20 00:15:47;;;;;;;4.07;3.27;;;5.40;99.90;;;;;;5094054;28;20039;-85
2022/11/20 00:18:13;;;;;;;4.50;3.00;;;5.40;99.90;;;;;;5093516;28;20031;-84
2022/11/20 00:20:39;;;;;;;5.83;3.00;;;5.40;99.90;;;;;;5092620;28;20119;-84
2022/11/20 00:23:06;;;;;;;5.03;3.20;;;5.30;99.90;;;;;;5093771;28;20357;-84
2022/11/20 00:25:34;;;;;;;4.47;2.73;;;5.40;99.90;;;;;;5093603;28;20020;-84
2022/11/20 00:28:00;;;;;;;5.27;3.20;;;5.40;99.90;;;;;;5093558;28;20409;-84
2022/11/20 00:30:25;;;;;;;4.00;3.10;;;5.40;99.90;;;;;;5093313;28;20031;-84
2022/11/20 00:32:51;;;;;;;5.90;3.50;;;5.30;99.90;;;;;;5093483;28;20054;-84
2022/11/20 00:35:16;;;;;;;6.37;3.53;;;5.30;99.90;;;;;;5093639;28;20482;-84
2022/11/20 00:37:42;;;;;;;7.63;3.77;;;5.30;99.90;;;;;;5093286;28;20364;-84
2022/11/20 00:40:08;;;;;;;6.03;4.17;;;5.30;99.90;;;;;;5093277;28;20052;-85
2022/11/20 00:42:33;;;;;;;6.13;3.17;;;5.30;99.90;;;;;;5093356;28;20365;-84
2022/11/20 00:44:59;;;;;;;6.33;3.20;;;5.30;99.90;;;;;;5093227;28;20081;-84
2022/11/20 00:47:24;;;;;;;5.97;3.80;;;5.30;99.90;;;;;;5093563;28;20048;-82
2022/11/20 00:49:50;;;;;;;4.93;3.80;;;5.30;99.90;;;;;;5093537;28;20077;-81
2022/11/20 00:52:16;;;;;;;6.43;4.03;;;5.30;99.90;;;;;;5093185;28;20508;-81
2022/11/20 00:54:41;;;;;;;4.80;3.63;;;5.30;99.90;;;;;;5093168;28;20047;-82
2022/11/20 00:57:07;;;;;;;5.17;3.33;;;5.30;99.90;;;;;;5092808;28;20024;-82
2022/11/20 00:59:32;;;;;;;5.57;3.60;;;5.30;99.90;;;;;;5093019;28;20024;-82
2022/11/20 01:01:58;;;;;;;6.33;3.67;;;5.30;99.90;;;;;;5093046;28;20533;-81
2022/11/20 01:04:23;;;;;;;5.27;3.53;;;5.30;99.90;;;;;;5092937;28;20028;-82
2022/11/20 01:06:49;;;;;;;4.63;3.73;;;5.30;99.90;;;;;;5093177;28;20020;-82
2022/11/20 01:09:14;;;;;;;5.47;3.60;;;5.30;99.90;;;;;;5092760;28;20491;-82
2022/11/20 01:11:43;;;;;;;4.90;3.87;;;5.30;99.90;;;;;;5093245;28;20027;-82
2022/11/20 01:14:17;;;;;;;4.13;3.27;;;5.20;99.90;;;;;;5092711;28;20020;-82
2022/11/20 01:16:49;;;;;;;4.38;3.42;;;5.20;99.90;;;;;;5092914;28;20093;-82
2022/11/20 01:19:25;;;;;;;5.13;3.50;;;5.30;99.90;;;;;;5092641;28;20107;-81
2022/11/20 01:21:53;;;;;;;4.87;3.63;;;5.20;99.90;;;;;;5093099;28;20024;-82
2022/11/20 01:24:20;;;;;;;4.60;3.40;;;5.20;99.90;;;;;;5092498;28;20465;-82
2022/11/20 01:26:48;;;;;;;4.60;3.40;;;5.30;99.90;;;;;;5092718;28;20032;-82
2022/11/20 01:29:17;;;;;;;5.37;3.70;;;5.20;99.90;;;;;;5092694;28;20027;-82
2022/11/20 01:31:43;;;;;;;7.13;3.57;;;5.30;99.90;;;;;;5092593;28;20020;-81
2022/11/20 01:34:19;;;;;;;6.63;4.00;;;5.30;99.90;;;;;;5092471;28;20024;-82
2022/11/20 01:36:48;;;;;;;7.20;3.63;;;5.30;99.90;;;;;;5092809;28;20047;-82
2022/11/20 01:39:17;;;;;;;5.00;4.00;;;5.30;99.90;;;;;;5092489;28;20027;-82
2022/11/20 01:44:50;;;;;;;4.97;3.50;;;5.30;99.90;;;;;;5093012;28;20067;-82
2022/11/20 01:47:21;;;;;;;5.30;3.37;;;5.30;99.90;;;;;;5092489;28;20028;-82
2022/11/20 01:49:54;;;;;;;4.27;3.67;;;5.30;99.90;;;;;;5092682;28;20112;-82
2022/11/20 01:52:24;;;;;;;5.27;4.00;;;5.30;99.90;;;;;;5092833;28;20044;-82
2022/11/20 01:54:58;;;;;;;7.03;4.03;;;5.30;99.90;;;;;;5092501;28;20066;-82
2022/11/20 01:57:26;;;;;;;4.90;3.47;;;5.30;99.90;;;;;;5093158;28;20047;-82
2022/11/20 01:59:59;;;;;;;6.87;3.77;;;5.20;99.90;;;;;;5092607;28;20027;-82
2022/11/20 02:02:25;;;;;;;6.57;3.60;;;5.20;99.90;;;;;;5093179;28;20059;-82
2022/11/20 02:04:53;;;;;;;6.57;3.67;;;5.20;99.90;;;;;;5092698;28;20059;-81
2022/11/20 02:07:20;;;;;;;6.63;4.00;;;5.20;99.90;;;;;;5092126;28;20028;-81
2022/11/20 02:09:47;;;;;;;5.50;3.87;;;5.20;99.90;;;;;;5092045;28;20032;-82
2022/11/20 02:13:42;;;;;;;5.73;3.90;;;5.20;99.90;;;;;;5091805;28;20728;-82
2022/11/20 02:14:58;;;;;;;4.15;3.70;;;5.20;99.90;;;;;;5091502;28;20036;-82
2022/11/20 02:17:25;;;;;;;6.27;4.13;;;5.20;99.90;;;;;;5091514;28;20111;-81
2022/11/20 02:19:51;;;;;;;6.43;3.90;;;5.20;99.90;;;;;;5092115;28;20372;-82
2022/11/20 02:22:28;;;;;;;7.87;4.03;;;5.20;99.90;;;;;;5091966;28;20024;-81
2022/11/20 02:24:54;;;;;;;6.37;3.83;;;5.20;99.90;;;;;;5092000;28;20024;-82
2022/11/20 02:27:20;;;;;;;8.63;3.90;;;5.30;99.90;;;;;;5092120;28;20073;-81
2022/11/20 02:29:57;;;;;;;6.60;3.97;;;5.30;99.90;;;;;;5091996;28;20490;-84
2022/11/20 02:32:27;;;;;;;5.37;3.80;;;5.30;99.90;;;;;;5090776;28;20436;-84
2022/11/20 02:34:53;;;;;;;5.67;4.23;;;5.30;99.90;;;;;;5093193;28;20024;-84
2022/11/20 02:37:20;;;;;;;10.50;4.53;;;5.30;99.90;;;;;;5095631;28;20020;-84
2022/11/20 02:39:47;;;;;;;6.00;4.00;;;5.30;99.90;;;;;;5095829;28;20157;-84
2022/11/20 02:42:13;;;;;;;7.73;4.13;;;5.30;99.90;;;;;;5095584;28;20020;-84
2022/11/20 02:44:38;;;;;;;5.67;4.13;;;5.40;99.90;;;;;;5095834;28;20034;-84
2022/11/20 02:47:04;;;;;;;4.40;3.57;;;5.40;99.90;;;;;;5095634;28;20032;-84
2022/11/20 02:49:29;;;;;;;5.50;4.00;;;5.40;99.90;;;;;;5095618;28;20036;-84
2022/11/20 02:51:55;;;;;;;5.10;3.83;;;5.40;99.90;;;;;;5095677;28;20024;-84
2022/11/20 02:54:20;;;;;;;6.17;3.90;;;5.40;99.90;;;;;;5095562;28;20032;-84
2022/11/20 02:56:46;;;;;;;3.97;3.37;;;5.40;99.90;;;;;;5095369;28;20046;-84
2022/11/20 02:59:12;;;;;;;5.53;4.00;;;5.40;99.90;;;;;;5095516;28;20032;-84
2022/11/20 03:01:37;;;;;;;6.03;3.83;;;5.40;99.90;;;;;;5095443;28;20063;-84
2022/11/20 03:04:03;;;;;;;4.77;3.40;;;5.40;99.90;;;;;;5095683;28;20104;-84
2022/11/20 03:06:28;;;;;;;5.50;3.90;;;5.40;99.90;;;;;;5094529;28;20043;-83
2022/11/20 03:08:54;;;;;;;4.50;3.23;;;5.30;99.90;;;;;;5095171;28;20096;-84
2022/11/20 03:11:20;;;;;;;4.93;3.73;;;5.40;99.90;;;;;;5095326;28;20080;-84
2022/11/20 03:13:45;;;;;;;4.83;3.60;;;5.40;99.90;;;;;;5095110;28;20051;-82
2022/11/20 03:16:16;;;;;;;5.00;3.40;;;5.40;99.90;;;;;;5095216;28;20111;-82
2022/11/20 03:18:43;;;;;;;5.90;3.23;;;5.40;99.90;;;;;;5095203;28;20073;-82
2022/11/20 03:21:10;;;;;;;4.37;3.30;;;5.40;99.90;;;;;;5094763;28;20021;-82
2022/11/20 03:23:36;;;;;;;3.70;3.30;;;5.40;99.90;;;;;;5094247;28;20031;-82
2022/11/20 03:26:20;;;;;;;7.27;3.60;;;5.40;99.90;;;;;;5094306;28;20453;-82
2022/11/20 03:28:54;;;;;;;5.43;3.30;;;5.40;99.90;;;;;;5094294;28;20117;-82
2022/11/20 03:31:23;;;;;;;5.13;3.25;;;5.30;99.90;;;;;;5094604;28;20102;-82
2022/11/20 03:33:48;;;;;;;5.90;3.27;;;5.30;99.90;;;;;;5094427;28;20111;-82
2022/11/20 03:36:16;;;;;;;6.07;3.60;;;5.30;99.90;;;;;;5094306;28;20123;-81
2022/11/20 03:38:42;;;;;;;4.27;3.23;;;5.30;99.90;;;;;;5094667;28;20388;-81
2022/11/20 03:41:10;;;;;;;3.97;3.37;;;5.30;99.90;;;;;;5094257;28;20043;-82
2022/11/20 03:43:36;;;;;;;4.90;3.13;;;5.20;99.90;;;;;;5094499;28;20574;-82
2022/11/20 03:46:03;;;;;;;6.10;3.63;;;5.20;99.90;;;;;;5092622;28;20031;-82
2022/11/20 03:48:29;;;;;;;6.83;3.37;;;5.20;99.90;;;;;;5093064;28;20044;-81
2022/11/20 03:51:12;;;;;;;5.27;3.73;;;5.20;99.90;;;;;;5094511;28;20050;-81
2022/11/20 03:53:38;;;;;;;4.67;3.70;;;5.20;99.90;;;;;;5094433;28;20024;-82
2022/11/20 03:56:04;;;;;;;7.13;3.93;;;5.20;99.90;;;;;;5094131;28;20465;-82
2022/11/20 03:58:30;;;;;;;4.53;3.43;;;5.30;99.90;;;;;;5094195;28;20373;-82
2022/11/20 04:00:56;;;;;;;5.00;3.23;;;5.30;99.90;;;;;;5094112;28;20028;-82
2022/11/20 04:03:22;;;;;;;4.90;3.60;;;5.20;99.90;;;;;;5094404;28;20028;-81
2022/11/20 04:05:47;;;;;;;6.60;3.43;;;5.20;99.90;;;;;;5094060;28;20163;-81
2022/11/20 04:08:13;;;;;;;6.87;3.60;;;5.20;99.90;;;;;;5094209;28;20028;-81
2022/11/20 04:10:38;;;;;;;6.60;2.90;;;5.20;99.90;;;;;;5093944;28;20103;-81
2022/11/20 04:13:04;;;;;;;4.10;3.30;;;5.30;99.90;;;;;;5094041;28;20065;-82
2022/11/20 04:15:29;;;;;;;4.53;3.30;;;5.30;99.90;;;;;;5094601;28;20045;-81
2022/11/20 04:17:55;;;;;;;6.13;3.23;;;5.30;99.90;;;;;;5093981;28;20044;-82
2022/11/20 04:20:21;;;;;;;4.97;3.50;;;5.20;99.90;;;;;;5075914;28;20373;-81
2022/11/20 04:22:46;;;;;;;5.07;3.27;;;5.20;99.90;;;;;;5093927;28;20088;-81
2022/11/20 04:25:12;;;;;;;5.77;3.60;;;5.20;99.90;;;;;;5093072;28;20024;-81
2022/11/20 04:27:37;;;;;;;4.30;3.33;;;5.20;99.90;;;;;;5093474;28;20109;-81
2022/11/20 04:30:03;;;;;;;4.03;3.27;;;5.20;99.90;;;;;;5093296;28;20110;-82
2022/11/20 04:32:29;;;;;;;3.80;3.30;;;5.20;99.90;;;;;;5092915;28;20062;-81
2022/11/20 04:34:54;;;;;;;5.13;3.23;;;5.20;99.90;;;;;;5092291;28;20028;-81
2022/11/20 04:37:20;;;;;;;5.60;3.80;;;5.10;99.90;;;;;;5092724;28;20020;-81
2022/11/20 04:39:46;;;;;;;4.27;3.57;;;5.10;99.90;;;;;;5093190;28;20020;-81
2022/11/20 04:42:29;;;;;;;6.27;4.23;;;5.10;99.90;;;;;;5093029;28;20457;-81
2022/11/20 04:44:56;;;;;;;4.60;3.60;;;5.10;99.90;;;;;;5092383;28;20024;-80
2022/11/20 04:47:21;;;;;;;4.93;3.50;;;5.10;99.90;;;;;;5092666;28;21174;-81
2022/11/20 04:49:47;;;;;;;4.77;3.80;;;5.10;99.90;;;;;;5092228;28;20032;-81
2022/11/20 04:52:13;;;;;;;6.00;3.63;;;5.10;99.90;;;;;;5091859;28;20111;-82
2022/11/20 04:54:39;;;;;;;6.03;3.67;;;5.10;99.90;;;;;;5092279;28;20035;-81
2022/11/20 04:57:04;;;;;;;5.37;3.63;;;5.10;99.90;;;;;;5092515;28;20028;-82
2022/11/20 04:59:30;;;;;;;5.27;3.80;;;5.10;99.90;;;;;;5092721;28;20028;-81
2022/11/20 05:01:56;;;;;;;5.23;3.90;;;5.10;99.90;;;;;;5093273;28;20055;-81
2022/11/20 05:04:21;;;;;;;6.07;3.50;;;5.10;99.90;;;;;;5092949;28;20024;-81
2022/11/20 05:06:47;;;;;;;5.73;3.50;;;5.10;99.90;;;;;;5093028;28;20031;-81
2022/11/20 05:09:13;;;;;;;5.50;3.47;;;5.10;99.90;;;;;;5093078;28;20077;-81
2022/11/20 05:11:38;;;;;;;6.47;3.27;;;5.10;99.90;;;;;;5093118;28;20036;-81
2022/11/20 05:14:04;;;;;;;5.03;3.00;;;5.10;99.90;;;;;;5092763;28;20049;-82
2022/11/20 05:16:29;;;;;;;4.93;3.27;;;5.10;99.90;;;;;;5093290;28;20016;-82
2022/11/20 05:18:55;;;;;;;5.13;3.40;;;5.10;99.90;;;;;;5092906;28;20020;-81
2022/11/20 05:21:21;;;;;;;4.83;3.20;;;5.10;99.90;;;;;;5092791;28;20032;-81
2022/11/20 05:23:47;;;;;;;4.50;3.30;;;5.10;99.90;;;;;;5092745;28;20031;-82
2022/11/20 05:26:21;;;;;;;4.53;3.07;;;5.10;99.90;;;;;;5092793;28;20039;-81
2022/11/20 05:28:47;;;;;;;5.87;3.20;;;5.10;99.90;;;;;;5092793;28;20036;-81
2022/11/20 05:31:20;;;;;;;5.80;3.53;;;5.10;99.90;;;;;;5093067;28;20028;-81
2022/11/20 05:33:45;;;;;;;5.60;3.70;;;5.10;99.90;;;;;;5092652;28;20032;-81
2022/11/20 05:36:13;;;;;;;4.67;3.33;;;5.10;99.90;;;;;;5092897;28;20020;-82
2022/11/20 05:38:39;;;;;;;4.97;3.60;;;5.10;99.90;;;;;;5092674;28;20367;-82
2022/11/20 05:41:15;;;;;;;3.73;3.20;;;5.00;99.90;;;;;;5092495;28;20059;-82
2022/11/20 05:43:43;;;;;;;5.27;3.43;;;5.10;99.90;;;;;;5092595;28;20097;-82
2022/11/20 05:46:11;;;;;;;4.23;3.23;;;5.00;99.90;;;;;;5092306;28;20063;-81
2022/11/20 05:48:38;;;;;;;5.03;4.00;;;5.10;99.90;;;;;;5092448;28;20135;-82
2022/11/20 05:51:05;;;;;;;4.47;3.73;;;5.10;99.90;;;;;;5092470;28;20107;-82
2022/11/20 05:53:33;;;;;;;5.57;3.50;;;5.00;99.90;;;;;;5092807;28;20110;-82
2022/11/20 05:55:59;;;;;;;4.47;3.37;;;5.00;99.90;;;;;;5092595;28;20456;-82
2022/11/20 05:58:25;;;;;;;5.37;3.87;;;5.00;99.90;;;;;;5092365;28;20529;-82
2022/11/20 06:00:51;;;;;;;4.87;3.60;;;5.00;99.90;;;;;;5092479;28;20028;-81
2022/11/20 06:03:16;;;;;;;5.03;3.53;;;4.90;99.90;;;;;;5092346;28;20035;-81
2022/11/20 06:05:42;;;;;;;4.40;3.30;;;4.90;99.90;;;;;;5092622;28;20040;-82
2022/11/20 06:08:07;;;;;;;5.20;3.67;;;4.90;99.90;;;;;;5092380;28;20095;-81
2022/11/20 06:10:33;;;;;;;5.73;3.53;;;4.80;99.90;;;;;;5096102;28;20072;-81
2022/11/20 06:12:58;;;;;;;5.30;3.60;;;4.90;99.90;;;;;;5096201;28;20061;-81
2022/11/20 06:15:24;;;;;;;4.97;3.57;;;4.80;99.90;;;;;;5096336;28;20817;-81
2022/11/20 06:17:53;;;;;;;5.83;3.77;;;4.80;99.90;;;;;;5096239;28;20101;-81
2022/11/20 06:20:20;;;;;;;5.97;3.80;;;4.80;99.90;;;;;;5096452;28;20077;-81
2022/11/20 06:22:45;;;;;;;4.53;3.70;;;4.70;99.90;;;;;;5096197;28;20027;-81
2022/11/20 06:25:11;;;;;;;4.80;3.53;;;4.70;99.90;;;;;;5096200;28;20553;-81
2022/11/20 06:27:37;;;;;;;5.87;3.40;;;4.60;99.90;;;;;;5096058;28;20024;-81
2022/11/20 06:30:03;;;;;;;6.10;3.53;;;4.50;99.90;;;;;;5096024;28;20025;-81
2022/11/20 06:32:29;;;;;;;4.40;3.70;;;4.50;99.90;;;;;;5095832;28;20016;-81
2022/11/20 06:34:54;;;;;;;4.50;3.10;;;4.50;99.90;;;;;;5095759;28;20058;-81
2022/11/20 06:37:20;;;;;;;4.03;3.20;;;4.50;99.90;;;;;;5095859;28;20032;-81
2022/11/20 06:39:46;;;;;;;5.93;3.40;;;4.50;99.90;;;;;;5096010;28;20039;-81
2022/11/20 06:42:11;;;;;;;5.10;3.23;;;4.50;99.90;;;;;;5095404;28;20024;-81
2022/11/20 06:44:37;;;;;;;4.73;3.07;;;4.50;99.90;;;;;;5095738;28;20032;-81
2022/11/20 06:47:02;;;;;;;4.33;3.17;;;4.50;99.90;;;;;;5095359;28;20528;-82
2022/11/20 06:49:28;;;;;;;5.23;3.50;;;4.50;99.90;;;;;;5095845;28;20506;-81
2022/11/20 06:51:53;;;;;;;3.73;3.00;;;4.60;99.90;;;;;;5095451;28;20039;-81
2022/11/20 06:54:19;;;;;;;3.30;2.87;;;4.60;99.90;;;;;;5095266;28;20032;-81
2022/11/20 06:56:48;;;;;;;4.60;3.00;;;4.60;99.90;;;;;;5095493;28;20165;-81
2022/11/20 06:59:14;;;;;;;5.20;2.63;;;4.70;99.90;;;;;;5095627;28;20020;-81
2022/11/20 07:01:39;;;;;;;3.47;2.93;;;4.70;99.90;;;;;;5095201;28;20028;-81
2022/11/20 07:04:05;;;;;;;3.97;2.50;;;4.70;99.90;;;;;;5095122;28;20072;-81
2022/11/20 07:06:30;;;;;;;4.40;2.67;;;4.70;99.90;;;;;;5095051;28;20081;-79
2022/11/20 07:08:56;;;;;;;4.10;2.97;;;4.80;99.90;;;;;;5095035;28;20111;-80
2022/11/20 07:11:22;;;;;;;6.50;2.90;;;4.80;99.90;;;;;;5093999;28;20051;-81
2022/11/20 07:13:47;;;;;;;6.17;3.90;;;4.90;99.90;;;;;;5094196;28;20471;-81
2022/11/20 07:16:13;;;;;;;4.63;2.60;;;4.90;99.90;;;;;;5094984;28;20024;-81
2022/11/20 07:18:39;;;;;;;4.03;2.83;;;4.90;99.90;;;;;;5094864;28;20032;-81
2022/11/20 07:21:07;;;;;;;5.27;3.17;;;4.90;99.90;;;;;;5094478;28;20035;-81
2022/11/20 07:23:32;;;;;;;4.40;3.60;;;4.90;99.90;;;;;;5094696;28;20134;-81
2022/11/20 07:26:02;;;;;;;6.30;3.03;;;5.00;99.90;;;;;;5094216;28;20111;-81
2022/11/20 07:28:27;;;;;;;3.50;2.80;;;5.00;99.90;;;;;;5091573;28;20376;-82
2022/11/20 07:30:53;;;;;;;4.27;2.93;;;5.00;99.90;;;;;;5091959;28;20043;-81
2022/11/20 07:33:19;;;;;;;5.13;3.33;;;5.00;99.90;;;;;;5092077;28;20047;-81
2022/11/20 07:35:45;;;;;;;7.33;3.53;;;5.00;99.90;;;;;;5074012;28;20473;-81
2022/11/20 07:38:11;;;;;;;5.07;3.70;;;5.10;99.90;;;;;;5092783;28;20035;-81
2022/11/20 07:40:37;;;;;;;5.60;4.23;;;5.10;99.90;;;;;;5092313;28;20035;-81
2022/11/20 07:43:02;;;;;;;4.83;3.77;;;5.10;99.90;;;;;;5089413;28;20024;-81
2022/11/20 07:45:28;;;;;;;6.13;3.90;;;5.20;99.90;;;;;;5074757;28;20032;-81
2022/11/20 07:47:53;;;;;;;5.70;4.00;;;5.20;99.90;;;;;;5093032;28;20511;-82
2022/11/20 07:50:20;;;;;;;6.73;3.90;;;5.20;99.90;;;;;;5089921;28;20040;-82
2022/11/20 07:52:45;;;;;;;4.90;3.67;;;5.30;99.90;;;;;;5093655;28;20040;-82
2022/11/20 07:55:12;;;;;;;4.50;3.87;;;5.30;99.90;;;;;;5090411;28;20024;-82
2022/11/20 07:57:37;;;;;;;7.63;3.97;;;5.40;99.90;;;;;;5076331;28;20089;-83
2022/11/20 08:00:05;;;;;;;8.23;3.40;;;5.40;99.90;;;;;;5078062;28;20123;-83
2022/11/20 08:02:30;;;;;;;5.43;3.40;;;5.40;99.90;;;;;;5077648;28;20043;-83
2022/11/20 08:04:56;;;;;;;5.40;3.23;;;5.40;99.90;;;;;;5091621;28;20483;-83
2022/11/20 08:07:23;;;;;;;4.70;3.37;;;5.40;99.90;;;;;;5096036;28;20077;-82
2022/11/20 08:09:49;;;;;;;6.87;3.20;;;5.50;99.90;;;;;;5092257;28;20082;-83
2022/11/20 08:15:04;;;;;;;4.80;2.83;;;5.50;99.90;;;;;;5089548;28;20531;-83
2022/11/20 08:17:29;;;;;;;3.97;2.90;;;5.60;99.90;;;;;;5078215;28;20036;-83
2022/11/20 08:19:55;;;;;;;4.90;3.03;;;5.70;99.90;;;;;;5074653;28;20032;-83
2022/11/20 08:22:20;;;;;;;3.97;3.07;;;5.70;99.90;;;;;;5091197;28;20024;-83
2022/11/20 08:24:46;;;;;;;5.47;3.10;;;5.80;99.90;;;;;;5086439;28;20119;-84
2022/11/20 08:27:11;;;;;;;7.30;3.20;;;5.80;99.90;;;;;;5081748;28;20063;-83
2022/11/20 08:29:37;;;;;;;3.47;2.83;;;5.90;99.90;;;;;;5084198;28;20051;-83
2022/11/20 08:32:05;;;;;;;5.97;3.90;;;5.90;99.90;;;;;;5086765;28;20114;-82
2022/11/20 08:34:31;;;;;;;4.40;2.80;;;5.90;99.90;;;;;;5092504;28;20036;-82
2022/11/20 08:36:57;;;;;;;4.23;2.67;;;6.00;99.90;;;;;;5092640;28;20028;-82
2022/11/20 08:39:22;;;;;;;4.20;2.97;;;6.00;99.90;;;;;;5083088;28;20444;-83
2022/11/20 08:41:48;;;;;;;4.70;3.30;;;6.00;99.90;;;;;;5086036;28;20418;-83
2022/11/20 08:44:13;;;;;;;5.07;2.97;;;6.00;99.90;;;;;;5088517;28;20024;-83
2022/11/20 08:46:43;;;;;;;5.03;2.80;;;6.00;99.90;;;;;;5085963;28;20036;-91
2022/11/20 08:49:11;;;;;;;3.77;2.73;;;6.10;99.90;;;;;;5080906;28;20060;-83
2022/11/20 08:51:38;;;;;;;3.57;2.60;;;6.20;99.90;;;;;;5091070;28;20039;-82
2022/11/20 08:54:05;;;;;;;4.10;2.80;;;6.30;99.90;;;;;;5090228;28;20031;-82
2022/11/20 08:56:30;;;;;;;3.63;2.47;;;6.30;99.90;;;;;;5072578;28;20042;-82
2022/11/20 08:58:56;;;;;;;4.40;2.40;;;6.30;99.90;;;;;;5082045;28;20100;-81
2022/11/20 09:01:23;;;;;;;4.40;2.37;;;6.30;99.90;;;;;;5081844;28;20025;-81
2022/11/20 09:03:49;;;;;;;5.13;3.13;;;6.30;99.90;;;;;;5071559;28;20043;-81
2022/11/20 09:06:15;;;;;;;5.37;2.77;;;6.30;99.90;;;;;;5052136;28;20066;-82
2022/11/20 09:08:41;;;;;;;4.50;2.40;;;6.30;99.90;;;;;;5076732;28;20409;-80
2022/11/20 09:11:07;;;;;;;3.17;2.60;;;6.40;99.90;;;;;;5091190;28;20112;-82
2022/11/20 09:13:34;;;;;;;3.17;2.60;;;6.40;99.90;;;;;;5090120;28;20498;-75
2022/11/20 09:16:06;;;;;;;5.30;2.50;;;6.40;99.90;;;;;;5086741;28;20050;-80
2022/11/20 09:18:38;;;;;;;5.53;2.77;;;6.40;99.90;;;;;;5089245;28;20024;-82
2022/11/20 09:21:07;;;;;;;5.70;2.57;;;6.50;99.90;;;;;;5094606;28;20026;-84
2022/11/20 09:23:35;;;;;;;3.17;2.23;;;6.50;99.90;;;;;;5087801;28;20055;-83
2022/11/20 09:26:05;;;;;;;4.33;2.70;;;6.50;99.90;;;;;;5089684;28;20039;-83
2022/11/20 09:28:31;;;;;;;3.93;2.60;;;6.60;99.90;;;;;;5088945;28;20533;-82
2022/11/20 09:30:57;;;;;;;5.80;2.23;;;6.60;99.90;;;;;;5083550;28;20024;-83
2022/11/20 09:33:22;;;;;;;3.23;2.43;;;6.60;99.90;;;;;;5090431;28;20096;-83
2022/11/20 09:35:48;;;;;;;3.17;2.30;;;6.70;99.90;;;;;;5083430;28;20080;-82
2022/11/20 09:38:14;;;;;;;3.97;2.40;;;6.70;99.90;;;;;;5090294;28;20426;-81
2022/11/20 09:40:58;;;;;;;3.80;2.37;;;6.80;99.90;;;;;;5093146;28;20028;-80
2022/11/20 09:43:44;;;;;;;3.70;2.47;;;6.90;99.90;;;;;;5089295;28;20028;-80
2022/11/20 09:46:18;;;;;;;3.60;2.03;;;6.90;99.90;;;;;;5090875;28;20051;-81
2022/11/20 09:49:26;;;;;;;4.65;2.25;;;7.10;99.90;;;;;;5091386;28;20293;-85
2022/11/20 09:52:31;;;;;;;2.83;2.10;;;7.20;99.90;;;;;;5076466;28;20376;-83
2022/11/20 09:54:57;;;;;;;3.63;2.33;;;7.30;99.90;;;;;;5093265;28;20020;-81
2022/11/20 09:57:34;;;;;;;3.10;2.23;;;7.50;99.90;;;;;;5094469;28;20081;-82
2022/11/20 10:00:02;;;;;;;2.80;1.80;;;7.60;99.90;;;;;;5093685;28;20024;-82
2022/11/20 10:02:42;;;;;;;3.43;2.30;;;7.80;99.90;;;;;;5093538;28;20130;-81
2022/11/20 10:05:26;;;;;;;3.90;1.97;;;7.90;99.90;;;;;;5086639;28;20024;-80
2022/11/20 10:08:30;;;;;;;3.13;2.23;;;8.00;99.90;;;;;;5095920;28;20103;-81
2022/11/20 10:11:23;;;;;;;4.03;2.17;;;8.10;99.90;;;;;;5043492;28;20044;-81
2022/11/20 10:14:03;;;;;;;3.73;2.07;;;8.10;99.90;;;;;;5092149;28;20055;-81
2022/11/20 10:17:12;;;;;;;4.47;2.30;;;8.10;99.90;;;;;;5096082;28;20024;-81
2022/11/20 10:19:59;;;;;;;2.90;1.70;;;8.10;99.90;;;;;;5073613;28;20102;-80
2022/11/20 10:22:30;;;;;;;2.93;2.03;;;8.10;99.90;;;;;;5090790;28;20028;-81
2022/11/20 10:25:16;;;;;;;2.63;1.93;;;8.10;99.90;;;;;;5091737;28;20020;-81
2022/11/20 10:28:00;;;;;;;2.90;1.98;;;8.20;99.90;;;;;;5094276;28;20028;-81
2022/11/20 10:30:27;;;;;;;2.33;1.70;;;8.20;99.90;;;;;;5086042;28;20029;-81
2022/11/20 10:32:58;;;;;;;2.80;1.60;;;8.30;99.90;;;;;;5094710;28;20031;-80
2022/11/20 10:35:27;;;;;;;3.17;1.67;;;8.20;99.90;;;;;;5095120;28;20096;-81
2022/11/20 10:38:03;;;;;;;6.40;1.70;;;8.20;99.90;;;;;;5092143;28;20055;-81
2022/11/20 10:40:38;;;;;;;3.33;1.43;;;8.10;99.90;;;;;;5093153;28;20094;-81
2022/11/20 10:43:21;;;;;;;4.03;1.60;;;8.20;99.90;;;;;;5089915;28;20024;-81
2022/11/20 10:46:04;;;;;;;2.20;1.70;;;8.30;99.90;;;;;;5089610;28;20020;-81
2022/11/20 10:48:31;;;;;;;2.07;1.53;;;8.30;99.90;;;;;;5089101;28;20040;-81
2022/11/20 10:51:48;;;;;;;5.70;1.50;;;8.30;99.90;;;;;;5092234;28;20040;-80
2022/11/20 10:54:32;;;;;;;2.95;1.70;;;8.30;99.90;;;;;;5057113;28;20045;-80
2022/11/20 10:57:13;;;;;;;2.80;1.43;;;8.30;99.90;;;;;;5092934;28;20039;-80
2022/11/20 10:59:58;;;;;;;4.33;1.33;;;8.20;99.90;;;;;;5094076;28;20093;-80
2022/11/20 11:02:35;;;;;;;4.80;1.57;;;8.00;99.90;;;;;;5085406;28;20860;-80
2022/11/20 11:05:23;;;;;;;2.00;1.40;;;8.10;99.90;;;;;;5084964;28;20029;-80
2022/11/20 11:07:54;;;;;;;2.57;1.67;;;8.10;99.90;;;;;;5091244;28;20023;-79
2022/11/20 11:10:34;;;;;;;2.20;1.60;;;8.10;99.90;;;;;;5090766;28;20338;-80
2022/11/20 11:12:59;;;;;;;2.57;1.57;;;8.20;99.90;;;;;;5092128;28;20073;-80
2022/11/20 11:15:36;;;;;;;4.50;1.50;;;8.30;99.90;;;;;;5091191;28;20020;-79
2022/11/20 11:18:02;;;;;;;4.10;1.60;;;8.30;99.90;;;;;;5089317;28;20081;-79
2022/11/20 11:20:29;;;;;;;2.00;1.40;;;8.30;99.90;;;;;;5091545;28;20020;-79
2022/11/20 11:22:57;;;;;;;3.40;1.67;;;8.40;99.90;;;;;;5091465;28;20036;-79
2022/11/20 11:25:28;;;;;;;2.20;1.40;;;8.40;99.90;;;;;;5092216;28;20034;-79
2022/11/20 11:27:56;;;;;;;3.30;1.50;;;8.30;99.90;;;;;;5074409;28;20028;-80
2022/11/20 11:30:23;;;;;;;3.20;1.57;;;8.30;99.90;;;;;;5078211;28;20115;-79
2022/11/20 11:32:49;;;;;;;4.90;2.00;;;8.20;99.90;;;;;;5092412;28;20075;-79
2022/11/20 11:35:21;;;;;;;2.57;1.50;;;8.10;99.90;;;;;;5087780;28;20484;-79
2022/11/20 11:37:48;;;;;;;4.00;1.80;;;8.00;99.90;;;;;;5074118;28;20028;-79
2022/11/20 11:40:13;;;;;;;2.30;1.67;;;8.00;99.90;;;;;;5086390;28;20389;-79
2022/11/20 11:42:53;;;;;;;3.83;1.57;;;7.90;99.90;;;;;;5092167;28;20035;-79
2022/11/20 11:45:19;;;;;;;3.00;1.70;;;7.80;99.90;;;;;;5091878;28;20031;-79
2022/11/20 11:47:51;;;;;;;1.90;1.60;;;7.70;99.90;;;;;;5088802;28;20119;-79
2022/11/20 11:50:20;;;;;;;2.60;1.70;;;7.80;99.90;;;;;;5091931;28;20047;-79
2022/11/20 11:53:04;;;;;;;3.57;1.60;;;7.80;99.90;;;;;;5090859;28;20085;-79
2022/11/20 11:55:58;;;;;;;2.77;1.60;;;7.70;99.90;;;;;;5090141;28;20034;-80
2022/11/20 11:58:40;;;;;;;1.50;1.20;;;7.60;99.90;;;;;;5081319;28;20039;-79
2022/11/20 12:01:29;;;;;;;2.70;1.73;;;7.50;99.90;;;;;;5086819;28;20039;-80
2022/11/20 12:04:16;;;;;;;2.60;1.70;;;7.30;99.90;;;;;;5085670;28;20105;-81
2022/11/20 12:06:47;;;;;;;2.10;1.60;;;7.10;99.90;;;;;;5088667;28;20023;-81
2022/11/20 12:09:13;;;;;;;2.63;1.53;;;7.00;99.90;;;;;;5091831;28;20023;-81
2022/11/20 12:11:49;;;;;;;3.30;1.50;;;6.90;99.90;;;;;;5085216;28;20133;-80
2022/11/20 12:14:32;;;;;;;2.57;1.70;;;6.90;99.90;;;;;;5089272;28;20421;-80
2022/11/20 12:16:58;;;;;;;2.77;1.80;;;6.90;99.90;;;;;;5088606;28;20016;-83
2022/11/20 12:19:24;;;;;;;3.23;1.70;;;7.10;99.90;;;;;;5091377;28;20027;-81
2022/11/20 12:22:10;;;;;;;2.37;1.50;;;7.10;99.90;;;;;;5086016;28;20542;-81
2022/11/20 12:25:06;;;;;;;2.43;1.50;;;7.20;99.90;;;;;;5095611;28;20115;-82
2022/11/20 12:27:49;;;;;;;3.73;1.70;;;7.20;99.90;;;;;;5086382;28;20020;-83
2022/11/20 12:30:17;;;;;;;2.20;1.57;;;7.20;99.90;;;;;;5088771;28;20081;-82
2022/11/20 12:33:19;;;;;;;2.73;1.70;;;7.20;99.90;;;;;;5089289;28;20024;-82
2022/11/20 12:36:02;;;;;;;4.90;1.50;;;7.20;99.90;;;;;;5092817;28;20047;-82
2022/11/20 12:38:52;;;;;;;1.80;1.50;;;7.30;99.90;;;;;;5092498;28;20030;-79
2022/11/20 12:45:11;;;;;;;4.70;1.40;;;7.20;99.90;;;;;;5015034;28;20046;-82
2022/11/20 12:47:54;;;;;;;2.33;1.77;;;7.20;99.90;;;;;;5087311;28;20046;-83
2022/11/20 12:50:34;;;;;;;2.10;1.50;;;7.10;99.90;;;;;;5077029;28;20099;-82
2022/11/20 12:53:02;;;;;;;4.63;1.63;;;7.00;99.90;;;;;;5070580;28;20392;-82
2022/11/20 12:55:59;;;;;;;2.80;2.03;;;6.90;99.90;;;;;;5077041;28;20051;-82
2022/11/20 12:58:36;;;;;;;3.67;1.60;;;7.00;99.90;;;;;;5065488;28;20438;-82
2022/11/20 13:01:42;;;;;;;4.07;1.87;;;6.90;99.90;;;;;;5092149;28;20341;-80
2022/11/20 13:04:25;;;;;;;3.85;1.70;;;7.00;99.90;;;;;;5085730;28;20468;-79
2022/11/20 13:06:51;;;;;;;3.10;1.90;;;7.00;99.90;;;;;;5073462;28;20029;-78
2022/11/20 13:09:23;;;;;;;3.20;1.90;;;7.00;99.90;;;;;;5090119;28;20310;-81
2022/11/20 13:12:11;;;;;;;2.83;1.90;;;6.90;99.90;;;;;;5081593;28;20032;-81
2022/11/20 13:14:45;;;;;;;4.67;2.00;;;6.90;99.90;;;;;;5086324;28;20034;-81
2022/11/20 13:17:29;;;;;;;2.83;1.80;;;6.90;99.90;;;;;;5070506;28;20414;-81
2022/11/20 13:19:58;;;;;;;3.40;2.20;;;6.70;99.90;;;;;;5075565;28;20036;-81
2022/11/20 13:22:29;;;;;;;2.40;1.90;;;6.70;99.90;;;;;;5083052;28;20048;-81